createdAt,value
2018-02-17T00:00:09.163Z,7.40
2018-02-17T00:02:36.667Z,6.80
2018-02-17T00:05:04.127Z,5.67
2018-02-17T00:07:31.578Z,5.50
2018-02-17T00:09:59.008Z,5.23
2018-02-17T00:12:27.230Z,5.27
2018-02-17T00:14:54.688Z,6.00
2018-02-17T00:17:22.138Z,5.97
2018-02-17T00:19:49.620Z,7.13
2018-02-17T00:22:17.091Z,6.50
2018-02-17T00:24:44.523Z,5.47
2018-02-17T00:27:11.982Z,5.20
2018-02-17T00:29:39.464Z,5.17
2018-02-17T00:32:06.941Z,6.17
2018-02-17T00:34:34.376Z,5.83
2018-02-17T00:37:01.868Z,5.37
2018-02-17T00:39:29.312Z,4.93
2018-02-17T00:41:56.748Z,5.60
2018-02-17T00:44:24.262Z,6.40
2018-02-17T00:46:51.692Z,4.80
2018-02-17T00:49:19.144Z,6.50
2018-02-17T00:51:46.646Z,5.67
2018-02-17T00:54:14.093Z,6.83
2018-02-17T00:56:41.551Z,6.57
2018-02-17T00:59:09.001Z,5.27
2018-02-17T01:01:36.435Z,5.73
2018-02-17T01:04:04.674Z,5.40
2018-02-17T01:06:32.112Z,5.70
2018-02-17T01:08:59.559Z,5.60
2018-02-17T01:11:27.079Z,6.23
2018-02-17T01:13:54.572Z,5.00
2018-02-17T01:16:22.804Z,6.33
2018-02-17T01:18:50.271Z,5.03
2018-02-17T01:21:17.756Z,5.30
2018-02-17T01:23:45.196Z,5.83
2018-02-17T01:26:12.636Z,4.60
2018-02-17T01:28:40.092Z,6.13
2018-02-17T01:31:07.576Z,4.50
2018-02-17T01:33:35.020Z,5.83
2018-02-17T01:36:02.470Z,7.17
2018-02-17T01:38:29.920Z,5.70
2018-02-17T01:40:58.248Z,6.00
2018-02-17T01:43:25.716Z,7.73
2018-02-17T01:45:53.167Z,5.67
2018-02-17T01:48:20.621Z,6.37
2018-02-17T01:50:48.119Z,6.10
2018-02-17T01:53:15.552Z,5.67
2018-02-17T01:55:42.992Z,7.73
2018-02-17T01:58:10.439Z,6.00
2018-02-17T02:00:37.915Z,5.53
2018-02-17T02:03:05.412Z,5.57
2018-02-17T02:05:32.936Z,5.70
2018-02-17T02:08:00.428Z,5.53
2018-02-17T02:10:27.992Z,4.93
2018-02-17T02:12:55.576Z,5.90
2018-02-17T02:15:23.028Z,6.13
2018-02-17T02:17:50.580Z,5.67
2018-02-17T02:20:18.134Z,5.60
2018-02-17T02:22:45.608Z,7.20
2018-02-17T02:25:13.072Z,4.97
2018-02-17T02:27:40.540Z,4.47
2018-02-17T02:30:07.985Z,5.80
2018-02-17T02:32:35.419Z,5.50
2018-02-17T02:35:02.920Z,5.40
2018-02-17T02:37:30.351Z,4.57
2018-02-17T02:39:57.841Z,5.37
2018-02-17T02:42:25.284Z,4.50
2018-02-17T02:44:52.727Z,5.10
2018-02-17T02:47:20.164Z,5.23
2018-02-17T02:49:48.404Z,5.10
2018-02-17T02:52:15.876Z,5.30
2018-02-17T02:54:43.310Z,6.20
2018-02-17T02:57:10.748Z,5.07
2018-02-17T02:59:38.219Z,5.27
2018-02-17T03:02:05.643Z,4.60
2018-02-17T03:04:33.148Z,4.83
2018-02-17T03:07:00.631Z,5.50
2018-02-17T03:09:28.080Z,5.20
2018-02-17T03:11:55.556Z,5.73
2018-02-17T03:14:23.015Z,5.67
2018-02-17T03:16:50.476Z,5.00
2018-02-17T03:19:17.920Z,5.90
2018-02-17T03:21:45.393Z,6.23
2018-02-17T03:24:12.832Z,5.93
2018-02-17T03:26:40.327Z,5.57
2018-02-17T03:29:08.609Z,5.90
2018-02-17T03:31:36.040Z,6.13
2018-02-17T03:34:03.483Z,6.17
2018-02-17T03:36:31.695Z,4.80
2018-02-17T03:38:59.164Z,5.73
2018-02-17T03:41:26.631Z,5.10
2018-02-17T03:43:54.104Z,6.00
2018-02-17T03:46:21.548Z,5.40
2018-02-17T03:48:48.980Z,5.77
2018-02-17T03:51:16.484Z,5.73
2018-02-17T03:53:44.015Z,5.97
2018-02-17T03:56:11.499Z,6.10
2018-02-17T03:58:38.941Z,5.20
2018-02-17T04:01:06.438Z,6.10
2018-02-17T04:03:33.879Z,5.57
2018-02-17T04:06:01.392Z,5.03
2018-02-17T04:08:28.843Z,7.20
2018-02-17T04:10:56.364Z,5.00
2018-02-17T04:13:23.808Z,6.40
2018-02-17T04:15:51.297Z,6.20
2018-02-17T04:18:18.700Z,4.90
2018-02-17T04:20:46.943Z,7.27
2018-02-17T04:23:14.384Z,6.03
2018-02-17T04:25:41.832Z,6.10
2018-02-17T04:28:09.280Z,5.90
2018-02-17T04:30:36.727Z,6.47
2018-02-17T04:33:04.943Z,5.77
2018-02-17T04:35:32.429Z,6.00
2018-02-17T04:37:59.863Z,6.30
2018-02-17T04:40:32.911Z,6.40
2018-02-17T04:43:05.675Z,5.60
2018-02-17T04:48:37.733Z,6.03
2018-02-17T04:51:10.795Z,7.00
2018-02-17T04:53:40.200Z,5.57
2018-02-17T04:56:13.428Z,5.57
2018-02-17T04:58:44.337Z,5.90
2018-02-17T05:01:29.658Z,6.90
2018-02-17T05:03:58.380Z,6.90
2018-02-17T05:06:28.399Z,7.20
2018-02-17T05:08:55.944Z,7.27
2018-02-17T05:11:23.387Z,6.20
2018-02-17T05:13:51.588Z,7.63
2018-02-17T05:16:19.811Z,7.30
2018-02-17T05:18:58.043Z,6.70
2018-02-17T05:21:30.124Z,7.07
2018-02-17T05:26:57.672Z,6.50
2018-02-17T05:29:25.876Z,6.97
2018-02-17T05:31:53.348Z,6.23
2018-02-17T05:37:24.196Z,10.33
2018-02-17T05:42:55.127Z,8.70
2018-02-17T05:45:22.562Z,7.37
2018-02-17T05:47:50.768Z,10.20
2018-02-17T05:50:18.212Z,9.37
2018-02-17T05:52:45.707Z,8.50
2018-02-17T05:55:13.176Z,8.13
2018-02-17T05:57:40.611Z,9.80
2018-02-17T06:00:08.066Z,10.37
2018-02-17T06:02:35.512Z,8.97
2018-02-17T06:05:03.712Z,9.00
2018-02-17T06:07:31.176Z,8.57
2018-02-17T06:09:58.655Z,9.47
2018-02-17T06:12:26.103Z,8.03
2018-02-17T06:14:53.580Z,10.17
2018-02-17T06:17:21.033Z,8.00
2018-02-17T06:19:48.480Z,8.97
2018-02-17T06:22:15.959Z,8.20
2018-02-17T06:24:43.421Z,10.40
2018-02-17T06:27:10.915Z,8.37
2018-02-17T06:29:38.347Z,8.73
2018-02-17T06:32:05.807Z,8.30
2018-02-17T06:34:33.311Z,8.53
2018-02-17T06:37:01.516Z,8.20
2018-02-17T06:39:29.009Z,8.20
2018-02-17T06:41:57.499Z,7.60
2018-02-17T06:44:24.956Z,10.07
2018-02-17T06:46:52.400Z,9.43
2018-02-17T06:49:19.850Z,8.67
2018-02-17T06:51:47.336Z,10.37
2018-02-17T06:54:14.773Z,7.13
2018-02-17T06:56:42.219Z,8.63
2018-02-17T06:59:09.664Z,9.50
2018-02-17T07:01:37.187Z,10.13
2018-02-17T07:04:04.624Z,10.03
2018-02-17T07:06:32.109Z,9.60
2018-02-17T07:08:59.552Z,8.93
2018-02-17T07:11:27.020Z,8.60
2018-02-17T07:13:54.485Z,10.30
2018-02-17T07:16:21.948Z,8.20
2018-02-17T07:18:49.524Z,9.67
2018-02-17T07:21:16.972Z,8.10
2018-02-17T07:23:44.435Z,9.27
2018-02-17T07:26:11.977Z,8.70
2018-02-17T07:28:39.398Z,8.00
2018-02-17T07:31:06.843Z,9.13
2018-02-17T07:33:34.379Z,10.43
2018-02-17T07:36:01.824Z,9.40
2018-02-17T07:38:29.264Z,9.43
2018-02-17T07:40:56.705Z,9.83
2018-02-17T07:43:24.158Z,11.07
2018-02-17T07:45:53.127Z,10.27
2018-02-17T07:48:20.567Z,10.50
2018-02-17T07:50:48.000Z,9.70
2018-02-17T07:53:16.232Z,9.40
2018-02-17T07:55:43.762Z,9.87
2018-02-17T07:58:11.249Z,9.33
2018-02-17T08:00:38.701Z,9.40
2018-02-17T08:03:06.145Z,8.63
2018-02-17T08:05:33.592Z,10.00
2018-02-17T08:08:01.036Z,10.37
2018-02-17T08:10:29.232Z,10.50
2018-02-17T08:12:56.735Z,9.40
2018-02-17T08:15:24.245Z,8.27
2018-02-17T08:17:51.640Z,8.50
2018-02-17T08:20:19.128Z,8.77
2018-02-17T08:22:46.571Z,9.50
2018-02-17T08:25:14.651Z,8.80
2018-02-17T08:27:42.119Z,9.80
2018-02-17T08:30:09.552Z,10.37
2018-02-17T08:32:37.075Z,10.80
2018-02-17T08:35:04.543Z,8.60
2018-02-17T08:37:33.622Z,9.50
2018-02-17T08:40:01.051Z,10.50
2018-02-17T08:42:28.499Z,9.60
2018-02-17T08:44:56.009Z,10.20
2018-02-17T08:47:23.523Z,10.10
2018-02-17T08:49:50.956Z,9.70
2018-02-17T08:52:19.188Z,9.23
2018-02-17T08:54:46.808Z,10.13
2018-02-17T08:57:15.028Z,10.00
2018-02-17T08:59:42.484Z,10.13
2018-02-17T09:02:09.951Z,8.70
2018-02-17T09:04:37.404Z,9.57
2018-02-17T09:07:04.844Z,10.70
2018-02-17T09:09:32.281Z,12.13
2018-02-17T09:12:00.487Z,12.57
2018-02-17T09:14:27.928Z,11.43
2018-02-17T09:16:56.136Z,11.83
2018-02-17T09:19:23.615Z,10.73
2018-02-17T09:21:53.020Z,11.13
2018-02-17T09:24:20.488Z,10.10
2018-02-17T09:26:47.994Z,11.60
2018-02-17T09:29:16.234Z,10.13
2018-02-17T09:31:43.666Z,10.73
2018-02-17T09:34:11.152Z,10.43
2018-02-17T09:36:38.592Z,10.93
2018-02-17T09:39:06.042Z,10.53
2018-02-17T09:41:33.508Z,11.87
2018-02-17T09:44:00.992Z,11.47
2018-02-17T09:46:28.467Z,11.07
2018-02-17T09:48:55.931Z,11.37
2018-02-17T09:51:23.363Z,11.30
2018-02-17T09:53:50.816Z,10.83
2018-02-17T09:56:18.247Z,10.97
2018-02-17T09:58:46.556Z,13.10
2018-02-17T10:01:14.043Z,11.47
2018-02-17T10:03:41.488Z,12.60
2018-02-17T10:06:08.939Z,10.33
2018-02-17T10:08:36.384Z,10.70
2018-02-17T10:11:04.580Z,10.03
2018-02-17T10:13:32.041Z,11.10
2018-02-17T10:16:00.288Z,11.57
2018-02-17T10:18:28.528Z,11.00
2018-02-17T10:20:55.960Z,12.27
2018-02-17T10:23:23.415Z,11.70
2018-02-17T10:25:50.888Z,11.30
2018-02-17T10:28:18.368Z,12.17
2018-02-17T10:30:45.808Z,11.50
2018-02-17T10:33:13.257Z,12.03
2018-02-17T10:35:40.716Z,12.20
2018-02-17T10:38:08.159Z,13.57
2018-02-17T10:40:36.396Z,12.50
2018-02-17T10:43:03.840Z,11.47
2018-02-17T10:45:31.311Z,11.80
2018-02-17T10:47:58.769Z,11.80
2018-02-17T10:50:26.221Z,12.40
2018-02-17T10:52:53.706Z,11.53
2018-02-17T10:58:13.937Z,13.23
2018-02-17T11:00:41.525Z,12.57
2018-02-17T11:03:08.924Z,11.00
2018-02-17T11:05:36.368Z,12.70
2018-02-17T11:08:03.880Z,11.37
2018-02-17T11:10:31.324Z,13.40
2018-02-17T11:12:58.855Z,11.80
2018-02-17T11:15:26.329Z,11.90
2018-02-17T11:17:53.777Z,11.90
2018-02-17T11:20:21.266Z,13.00
2018-02-17T11:22:48.720Z,11.30
2018-02-17T11:25:16.167Z,11.40
2018-02-17T11:27:43.663Z,11.33
2018-02-17T11:30:11.220Z,10.90
2018-02-17T11:32:38.747Z,12.27
2018-02-17T11:35:06.182Z,11.27
2018-02-17T11:37:34.380Z,13.10
2018-02-17T11:40:01.824Z,11.37
2018-02-17T11:42:30.028Z,10.77
2018-02-17T11:44:57.483Z,11.20
2018-02-17T11:47:24.990Z,12.30
2018-02-17T11:49:52.421Z,10.83
2018-02-17T11:52:19.864Z,10.87
2018-02-17T11:54:47.331Z,10.70
2018-02-17T11:57:14.788Z,11.10
2018-02-17T11:59:42.227Z,11.70
2018-02-17T12:02:10.430Z,10.43
2018-02-17T12:04:37.938Z,11.20
2018-02-17T12:07:05.376Z,11.20
2018-02-17T12:09:32.920Z,11.97
2018-02-17T12:12:00.413Z,10.00
2018-02-17T12:14:27.859Z,10.87
2018-02-17T12:16:55.329Z,10.50
2018-02-17T12:19:22.753Z,10.47
2018-02-17T12:21:50.205Z,10.60
2018-02-17T12:24:18.435Z,12.10
2018-02-17T12:26:45.876Z,11.77
2018-02-17T12:29:13.360Z,10.80
2018-02-17T12:31:40.811Z,11.23
2018-02-17T12:34:08.280Z,10.27
2018-02-17T12:36:35.737Z,11.57
2018-02-17T12:39:03.200Z,12.43
2018-02-17T12:41:30.636Z,10.70
2018-02-17T12:43:58.176Z,11.90
2018-02-17T12:46:26.405Z,12.00
2018-02-17T12:48:53.860Z,10.30
2018-02-17T12:51:21.316Z,11.30
2018-02-17T12:53:48.782Z,10.43
2018-02-17T12:56:16.243Z,11.30
2018-02-17T12:58:43.692Z,10.80
2018-02-17T13:01:11.152Z,10.00
2018-02-17T13:03:38.620Z,10.80
2018-02-17T13:06:06.095Z,10.13
2018-02-17T13:08:33.538Z,10.63
2018-02-17T13:11:01.091Z,9.80
2018-02-17T13:13:28.525Z,10.13
2018-02-17T13:15:56.779Z,9.03
2018-02-17T13:18:24.319Z,9.97
2018-02-17T13:20:51.772Z,10.10
2018-02-17T13:23:19.244Z,9.00
2018-02-17T13:25:46.692Z,10.10
2018-02-17T13:28:25.934Z,9.17
2018-02-17T13:30:53.376Z,9.97
2018-02-17T13:33:20.808Z,9.40
2018-02-17T13:35:49.016Z,9.03
2018-02-17T13:38:16.537Z,9.43
2018-02-17T13:40:44.072Z,9.00
2018-02-17T13:43:11.516Z,8.87
2018-02-17T13:45:38.962Z,8.50
2018-02-17T13:48:06.448Z,9.00
2018-02-17T13:50:33.897Z,9.20
2018-02-17T13:53:01.337Z,9.40
2018-02-17T13:55:28.795Z,8.10
2018-02-17T13:57:56.367Z,7.37
2018-02-17T14:00:23.799Z,7.93
2018-02-17T14:02:52.013Z,8.60
2018-02-17T14:05:19.491Z,9.60
2018-02-17T14:07:46.935Z,8.10
2018-02-17T14:10:14.392Z,10.00
2018-02-17T14:12:41.841Z,8.83
2018-02-17T14:15:10.056Z,8.37
2018-02-17T14:17:37.488Z,7.87
2018-02-17T14:20:04.974Z,9.90
2018-02-17T14:22:32.412Z,8.93
2018-02-17T14:24:59.864Z,9.90
2018-02-17T14:27:27.296Z,9.47
2018-02-17T14:29:55.600Z,8.43
2018-02-17T14:32:23.820Z,8.20
2018-02-17T14:34:51.416Z,7.93
2018-02-17T14:37:18.868Z,10.03
2018-02-17T14:39:46.300Z,9.93
2018-02-17T14:42:13.765Z,9.63
2018-02-17T14:44:41.212Z,8.27
2018-02-17T14:47:08.679Z,8.50
2018-02-17T14:49:36.108Z,8.50
2018-02-17T14:52:03.552Z,8.97
2018-02-17T14:54:31.784Z,8.27
2018-02-17T14:56:59.240Z,8.90
2018-02-17T14:59:26.666Z,9.23
2018-02-17T15:01:54.883Z,8.63
2018-02-17T15:04:22.348Z,8.80
2018-02-17T15:06:49.798Z,8.50
2018-02-17T15:09:17.874Z,9.37
2018-02-17T15:11:45.314Z,8.53
2018-02-17T15:14:12.784Z,10.43
2018-02-17T15:16:40.272Z,9.20
2018-02-17T15:19:08.487Z,9.40
2018-02-17T15:21:36.012Z,8.83
2018-02-17T15:24:03.440Z,10.10
2018-02-17T15:26:30.936Z,9.60
2018-02-17T15:28:58.392Z,8.90
2018-02-17T15:31:25.855Z,8.90
2018-02-17T15:33:53.296Z,10.00
2018-02-17T15:36:20.796Z,8.93
2018-02-17T15:38:48.216Z,9.47
2018-02-17T15:41:15.660Z,9.30
2018-02-17T15:43:43.970Z,8.43
2018-02-17T15:46:11.405Z,9.40
2018-02-17T15:48:38.832Z,9.80
2018-02-17T15:51:06.272Z,9.07
2018-02-17T15:53:33.711Z,10.17
2018-02-17T15:56:01.185Z,9.47
2018-02-17T15:58:28.616Z,9.10
2018-02-17T16:00:56.064Z,8.87
2018-02-17T16:03:24.261Z,8.40
2018-02-17T16:05:51.708Z,9.10
2018-02-17T16:08:19.213Z,12.93
2018-02-17T16:10:46.644Z,12.77
2018-02-17T16:13:14.131Z,11.57
2018-02-17T16:15:41.567Z,9.13
2018-02-17T16:18:09.036Z,9.90
2018-02-17T16:20:36.464Z,9.90
2018-02-17T16:23:04.664Z,9.17
2018-02-17T16:25:32.100Z,8.93
2018-02-17T16:28:00.312Z,10.07
2018-02-17T16:30:27.754Z,8.90
2018-02-17T16:32:55.975Z,8.93
2018-02-17T16:35:23.448Z,9.73
2018-02-17T16:37:50.933Z,8.30
2018-02-17T16:40:19.457Z,9.10
2018-02-17T16:42:46.896Z,13.13
2018-02-17T16:45:15.120Z,12.37
2018-02-17T16:47:42.563Z,19.20
2018-02-17T16:50:10.004Z,13.40
2018-02-17T16:52:37.612Z,11.10
2018-02-17T16:55:05.068Z,14.13
2018-02-17T16:57:32.524Z,14.27
2018-02-17T16:59:59.952Z,14.30
2018-02-17T17:02:27.452Z,11.40
2018-02-17T17:04:54.888Z,12.37
2018-02-17T17:07:22.328Z,9.57
2018-02-17T17:09:50.534Z,11.10
2018-02-17T17:12:18.012Z,10.63
2018-02-17T17:14:45.452Z,11.97
2018-02-17T17:17:12.892Z,12.20
2018-02-17T17:19:41.096Z,10.60
2018-02-17T17:22:08.576Z,11.10
2018-02-17T17:24:36.041Z,11.27
2018-02-17T17:27:03.492Z,10.70
2018-02-17T17:29:30.927Z,10.13
2018-02-17T17:31:58.376Z,11.17
2018-02-17T17:34:26.577Z,10.33
2018-02-17T17:36:54.032Z,10.00
2018-02-17T17:39:21.532Z,12.77
2018-02-17T17:41:48.967Z,11.07
2018-02-17T17:44:16.425Z,10.67
2018-02-17T17:46:43.845Z,12.10
2018-02-17T17:49:11.368Z,12.03
2018-02-17T17:51:38.805Z,10.40
2018-02-17T17:54:06.366Z,12.50
2018-02-17T17:56:34.588Z,13.00
2018-02-17T17:59:02.036Z,12.63
2018-02-17T18:01:29.497Z,9.90
2018-02-17T18:03:56.962Z,10.20
2018-02-17T18:06:24.473Z,11.53
2018-02-17T18:08:52.673Z,11.23
2018-02-17T18:11:20.134Z,12.50
2018-02-17T18:13:47.563Z,11.90
2018-02-17T18:16:15.793Z,11.03
2018-02-17T18:18:43.232Z,11.70
2018-02-17T18:21:10.672Z,11.50
2018-02-17T18:23:38.880Z,11.13
2018-02-17T18:26:06.351Z,16.90
2018-02-17T18:28:33.842Z,18.40
2018-02-17T18:31:01.276Z,21.73
2018-02-17T18:33:28.720Z,23.80
2018-02-17T18:35:56.227Z,24.30
2018-02-17T18:38:23.677Z,28.70
2018-02-17T18:40:51.239Z,29.57
2018-02-17T18:43:18.696Z,28.90
2018-02-17T18:45:46.171Z,33.00
2018-02-17T18:48:13.774Z,26.60
2018-02-17T18:50:41.184Z,29.27
2018-02-17T18:53:08.639Z,27.27
2018-02-17T18:55:36.152Z,30.53
2018-02-17T18:58:04.364Z,31.10
2018-02-17T19:00:31.816Z,29.40
2018-02-17T19:02:59.255Z,28.43
2018-02-17T19:05:27.544Z,24.07
2018-02-17T19:07:54.997Z,23.93
2018-02-17T19:10:23.200Z,25.43
2018-02-17T19:12:50.648Z,24.83
2018-02-17T19:15:18.920Z,22.47
2018-02-17T19:17:47.149Z,21.23
2018-02-17T19:20:14.684Z,23.00
2018-02-17T19:22:42.105Z,23.47
2018-02-17T19:25:10.311Z,20.23
2018-02-17T19:27:37.825Z,20.40
2018-02-17T19:30:05.261Z,20.77
2018-02-17T19:32:32.735Z,21.70
2018-02-17T19:35:00.270Z,20.43
2018-02-17T19:37:27.732Z,19.90
2018-02-17T19:39:55.223Z,20.10
2018-02-17T19:42:22.712Z,20.00
2018-02-17T19:44:50.184Z,19.80
2018-02-17T19:47:18.432Z,20.03
2018-02-17T19:49:46.072Z,22.60
2018-02-17T19:52:19.240Z,20.23
2018-02-17T19:54:47.637Z,24.23
2018-02-17T19:57:15.141Z,19.57
2018-02-17T19:59:42.628Z,19.77
2018-02-17T20:02:10.844Z,20.20
2018-02-17T20:04:38.328Z,20.60
2018-02-17T20:07:05.795Z,20.93
2018-02-17T20:09:34.158Z,18.60
2018-02-17T20:12:01.628Z,18.47
2018-02-17T20:14:29.071Z,19.57
2018-02-17T20:16:56.564Z,18.20
2018-02-17T20:19:24.120Z,19.43
2018-02-17T20:21:51.607Z,16.80
2018-02-17T20:24:19.137Z,19.10
2018-02-17T20:26:46.579Z,17.53
2018-02-17T20:29:14.056Z,16.20
2018-02-17T20:31:41.533Z,16.53
2018-02-17T20:34:08.989Z,16.60
2018-02-17T20:36:36.528Z,15.57
2018-02-17T20:39:04.085Z,17.07
2018-02-17T20:41:32.370Z,17.70
2018-02-17T20:43:59.856Z,14.70
2018-02-17T20:46:27.351Z,15.97
2018-02-17T20:48:54.764Z,15.23
2018-02-17T20:51:22.244Z,15.37
2018-02-17T20:53:49.791Z,15.60
2018-02-17T20:56:17.268Z,15.00
2018-02-17T20:58:44.720Z,15.70
2018-02-17T21:01:12.169Z,14.53
2018-02-17T21:03:39.676Z,16.97
2018-02-17T21:06:07.395Z,17.13
2018-02-17T21:08:34.907Z,20.17
2018-02-17T21:11:02.455Z,18.90
2018-02-17T21:13:29.887Z,17.13
2018-02-17T21:15:57.376Z,15.73
2018-02-17T21:18:24.836Z,18.60
2018-02-17T21:20:52.327Z,17.30
2018-02-17T21:23:19.796Z,20.23
2018-02-17T21:25:48.049Z,20.10
2018-02-17T21:28:15.486Z,26.03
2018-02-17T21:30:43.068Z,28.97
2018-02-17T21:33:10.551Z,21.03
2018-02-17T21:35:38.001Z,19.10
2018-02-17T21:38:05.570Z,17.87
2018-02-17T21:40:33.076Z,19.07
2018-02-17T21:43:02.027Z,16.80
2018-02-17T21:45:29.524Z,17.13
2018-02-17T21:47:57.744Z,17.13
2018-02-17T21:50:25.195Z,16.07
2018-02-17T21:52:52.669Z,17.03
2018-02-17T21:55:20.124Z,18.43
2018-02-17T21:57:48.407Z,16.07
2018-02-17T22:00:15.860Z,16.57
2018-02-17T22:02:43.308Z,18.00
2018-02-17T22:05:10.897Z,17.37
2018-02-17T22:07:38.349Z,16.03
2018-02-17T22:10:05.901Z,17.10
2018-02-17T22:12:33.401Z,17.60
2018-02-17T22:15:00.985Z,18.20
2018-02-17T22:17:28.528Z,17.97
2018-02-17T22:19:55.993Z,18.30
2018-02-17T22:22:23.536Z,17.97
2018-02-17T22:24:50.986Z,18.17
2018-02-17T22:27:18.430Z,17.47
2018-02-17T22:29:45.979Z,18.50
2018-02-17T22:32:14.180Z,18.07
2018-02-17T22:34:41.664Z,18.57
2018-02-17T22:37:09.231Z,18.80
2018-02-17T22:39:36.732Z,17.93
2018-02-17T22:42:05.043Z,18.40
2018-02-17T22:44:32.514Z,19.37
2018-02-17T22:47:00.004Z,19.27
2018-02-17T22:49:27.472Z,18.77
2018-02-17T22:51:55.012Z,18.70
2018-02-17T22:54:22.589Z,17.90
2018-02-17T22:56:50.181Z,21.37
2018-02-17T22:59:17.781Z,20.60
2018-02-17T23:01:45.227Z,18.30
2018-02-17T23:04:12.664Z,16.00
2018-02-17T23:06:40.167Z,17.73
2018-02-17T23:09:08.385Z,16.90
2018-02-17T23:11:35.948Z,19.07
2018-02-17T23:14:03.400Z,18.83
2018-02-17T23:16:30.899Z,19.30
2018-02-17T23:18:58.336Z,17.43
2018-02-17T23:21:25.885Z,16.73
2018-02-17T23:23:53.332Z,15.87
2018-02-17T23:26:20.801Z,18.30
2018-02-17T23:28:48.267Z,17.43
2018-02-17T23:31:16.353Z,18.90
2018-02-17T23:33:43.806Z,18.80
2018-02-17T23:36:11.268Z,16.23
2018-02-17T23:38:38.881Z,14.97
2018-02-17T23:41:07.167Z,14.90
2018-02-17T23:43:34.676Z,16.90
2018-02-17T23:46:02.124Z,18.93
2018-02-17T23:48:29.588Z,24.10
2018-02-17T23:50:57.060Z,22.07
2018-02-17T23:53:24.499Z,20.63
2018-02-17T23:55:51.972Z,18.80
2018-02-17T23:58:19.441Z,19.13
